Aviation Digital Data Service (ADDS)

Output produced by TAFs form (0249 UTC 26 November 2014)
found at http://aviationweather.gov/adds/tafs/
 
KTCC 252320Z 2600/2624 24020G30KT P6SM SKC 
     FM260200 27010G20KT P6SM SKC 
     FM260600 29009KT P6SM FEW250 
     FM261500 03008KT P6SM FEW200